createdAt,value
2017-09-10T00:01:04.487Z,4.60
2017-09-10T00:03:33.351Z,4.33
2017-09-10T00:06:02.223Z,4.70
2017-09-10T00:08:31.096Z,4.30
2017-09-10T00:11:01.022Z,4.50
2017-09-10T00:13:29.891Z,3.70
2017-09-10T00:15:59.641Z,4.60
2017-09-10T00:18:28.503Z,4.53
2017-09-10T00:20:57.371Z,5.30
2017-09-10T00:23:26.248Z,4.30
2017-09-10T00:25:55.204Z,4.90
2017-09-10T00:28:24.075Z,4.27
2017-09-10T00:30:52.933Z,4.27
2017-09-10T00:33:21.807Z,4.73
2017-09-10T00:35:50.656Z,4.17
2017-09-10T00:38:20.293Z,4.90
2017-09-10T00:40:49.147Z,4.40
2017-09-10T00:43:18.216Z,5.17
2017-09-10T00:45:47.945Z,4.47
2017-09-10T00:48:16.833Z,4.17
2017-09-10T00:50:45.696Z,3.97
2017-09-10T00:53:14.569Z,4.83
2017-09-10T00:55:43.725Z,4.77
2017-09-10T00:58:12.591Z,4.60
2017-09-10T01:00:41.441Z,4.93
2017-09-10T01:03:11.160Z,4.47
2017-09-10T01:05:40.027Z,4.77
2017-09-10T01:08:08.912Z,4.40
2017-09-10T01:10:37.792Z,4.13
2017-09-10T01:13:06.643Z,4.23
2017-09-10T01:15:35.517Z,4.97
2017-09-10T01:18:04.982Z,4.20
2017-09-10T01:20:33.857Z,5.67
2017-09-10T01:23:04.511Z,4.30
2017-09-10T01:25:34.226Z,4.70
2017-09-10T01:28:03.075Z,4.53
2017-09-10T01:30:31.939Z,4.53
2017-09-10T01:33:01.512Z,5.37
2017-09-10T01:35:30.379Z,5.10
2017-09-10T01:37:59.239Z,4.73
2017-09-10T01:40:28.152Z,4.90
2017-09-10T01:42:57.231Z,5.97
2017-09-10T01:45:26.108Z,3.90
2017-09-10T01:47:54.960Z,4.10
2017-09-10T01:50:23.833Z,4.10
2017-09-10T01:52:52.692Z,4.93
2017-09-10T01:55:21.561Z,5.20
2017-09-10T01:57:50.438Z,5.43
2017-09-10T02:00:19.451Z,4.77
2017-09-10T02:02:48.305Z,3.60
2017-09-10T02:05:18.001Z,4.97
2017-09-10T02:07:46.868Z,4.20
2017-09-10T02:10:15.749Z,4.30
2017-09-10T02:12:44.883Z,5.67
2017-09-10T02:15:13.756Z,4.90
2017-09-10T02:17:42.612Z,5.30
2017-09-10T02:20:11.479Z,4.20
2017-09-10T02:22:40.353Z,6.10
2017-09-10T02:25:10.160Z,3.90
2017-09-10T02:27:39.047Z,4.50
2017-09-10T02:30:08.183Z,4.43
2017-09-10T02:32:37.037Z,5.53
2017-09-10T02:35:06.319Z,4.40
2017-09-10T02:37:35.174Z,5.07
2017-09-10T02:40:04.203Z,5.20
2017-09-10T02:42:33.391Z,5.20
2017-09-10T02:45:03.040Z,4.97
2017-09-10T02:47:31.906Z,4.67
2017-09-10T02:50:00.786Z,4.70
2017-09-10T02:52:29.643Z,5.40
2017-09-10T02:54:58.519Z,5.10
2017-09-10T02:57:27.466Z,5.07
2017-09-10T02:59:56.340Z,5.67
2017-09-10T03:02:25.204Z,4.87
2017-09-10T03:04:54.462Z,4.83
2017-09-10T03:07:23.331Z,7.10
2017-09-10T03:09:52.200Z,4.20
2017-09-10T03:12:21.051Z,3.60
2017-09-10T03:14:50.061Z,5.20
2017-09-10T03:17:18.924Z,5.70
2017-09-10T03:19:47.968Z,4.80
2017-09-10T03:22:16.825Z,6.77
2017-09-10T03:24:45.696Z,4.40
2017-09-10T03:27:13.200Z,5.23
2017-09-10T03:29:40.709Z,5.23
2017-09-10T03:32:08.243Z,4.80
2017-09-10T03:34:35.761Z,4.87
2017-09-10T03:37:04.052Z,5.13
2017-09-10T03:39:31.561Z,5.47
2017-09-10T03:41:59.097Z,5.00
2017-09-10T03:44:26.681Z,5.50
2017-09-10T03:46:54.204Z,5.50
2017-09-10T03:49:22.651Z,5.10
2017-09-10T03:51:50.186Z,4.97
2017-09-10T03:54:17.688Z,5.80
2017-09-10T03:56:45.221Z,5.63
2017-09-10T03:59:12.736Z,6.30
2017-09-10T04:01:40.261Z,5.17
2017-09-10T04:04:07.773Z,5.70
2017-09-10T04:06:35.297Z,5.87
2017-09-10T04:09:03.572Z,5.83
2017-09-10T04:11:31.864Z,5.67
2017-09-10T04:13:59.367Z,5.57
2017-09-10T04:16:26.893Z,6.67
2017-09-10T04:18:54.396Z,6.17
2017-09-10T04:21:21.927Z,6.70
2017-09-10T04:23:50.194Z,6.33
2017-09-10T04:26:17.717Z,5.90
2017-09-10T04:28:45.220Z,7.57
2017-09-10T04:31:12.744Z,5.23
2017-09-10T04:33:40.518Z,6.50
2017-09-10T04:36:08.803Z,5.80
2017-09-10T04:38:36.477Z,6.70
2017-09-10T04:41:04.792Z,6.40
2017-09-10T04:43:32.642Z,6.03
2017-09-10T04:46:00.712Z,5.47
2017-09-10T04:48:29.133Z,6.33
2017-09-10T04:50:56.658Z,5.37
2017-09-10T04:53:24.169Z,6.30
2017-09-10T04:55:51.913Z,6.70
2017-09-10T04:58:19.437Z,6.60
2017-09-10T05:00:46.956Z,6.10
2017-09-10T05:03:14.465Z,6.27
2017-09-10T05:05:41.974Z,6.00
2017-09-10T05:08:09.504Z,6.57
2017-09-10T05:10:37.200Z,6.33
2017-09-10T05:13:05.492Z,6.27
2017-09-10T05:15:34.833Z,6.43
2017-09-10T05:18:02.508Z,6.50
2017-09-10T05:20:30.021Z,7.23
2017-09-10T05:22:58.431Z,6.80
2017-09-10T05:25:26.147Z,6.33
2017-09-10T05:27:54.624Z,6.90
2017-09-10T05:30:22.891Z,7.33
2017-09-10T05:32:50.412Z,6.30
2017-09-10T05:35:17.932Z,6.20
2017-09-10T05:37:45.491Z,6.63
2017-09-10T05:40:12.995Z,6.53
2017-09-10T05:42:40.512Z,6.20
2017-09-10T05:45:08.783Z,6.77
2017-09-10T05:47:36.328Z,6.50
2017-09-10T05:50:04.129Z,7.00
2017-09-10T05:52:31.649Z,6.50
2017-09-10T05:54:59.157Z,7.03
2017-09-10T05:57:26.705Z,7.03
2017-09-10T05:59:54.209Z,6.77
2017-09-10T06:02:21.733Z,6.53
2017-09-10T06:04:50.008Z,6.80
2017-09-10T06:09:51.420Z,6.07
2017-09-10T06:12:18.939Z,5.70
2017-09-10T06:14:46.448Z,6.27
2017-09-10T06:17:13.976Z,5.80
2017-09-10T06:19:41.494Z,5.30
2017-09-10T06:22:09.020Z,5.83
2017-09-10T06:24:36.524Z,5.70
2017-09-10T06:27:04.058Z,4.77
2017-09-10T06:29:31.574Z,4.90
2017-09-10T06:31:59.095Z,4.53
2017-09-10T06:34:26.601Z,4.70
2017-09-10T06:36:54.119Z,4.93
2017-09-10T06:39:21.636Z,4.60
2017-09-10T06:41:49.181Z,4.80
2017-09-10T06:44:16.693Z,4.73
2017-09-10T06:46:44.199Z,5.00
2017-09-10T06:49:11.725Z,4.67
2017-09-10T06:51:39.249Z,4.67
2017-09-10T06:54:06.764Z,5.00
2017-09-10T06:56:34.289Z,5.50
2017-09-10T06:59:01.808Z,6.13
2017-09-10T07:01:29.341Z,6.70
2017-09-10T07:03:57.612Z,6.23
2017-09-10T07:06:26.820Z,7.57
2017-09-10T07:08:54.324Z,8.33
2017-09-10T07:11:21.832Z,8.23
2017-09-10T07:13:50.136Z,7.90
2017-09-10T07:16:17.645Z,7.57
2017-09-10T07:18:45.192Z,6.70
2017-09-10T07:21:12.707Z,7.50
2017-09-10T07:23:40.240Z,7.10
2017-09-10T07:26:08.509Z,6.60
2017-09-10T07:28:36.057Z,5.57
2017-09-10T07:31:03.565Z,4.83
2017-09-10T07:33:31.071Z,5.13
2017-09-10T07:35:58.603Z,4.30
2017-09-10T07:38:26.117Z,4.60
2017-09-10T07:40:54.409Z,4.80
2017-09-10T07:43:21.917Z,4.30
2017-09-10T07:45:49.451Z,4.93
2017-09-10T07:48:16.966Z,5.17
2017-09-10T07:50:44.497Z,5.13
2017-09-10T07:53:12.039Z,4.60
2017-09-10T07:55:39.583Z,5.17
2017-09-10T07:58:07.093Z,4.23
2017-09-10T08:00:34.615Z,3.60
2017-09-10T08:03:02.139Z,4.20
2017-09-10T08:08:28.439Z,4.20
2017-09-10T08:10:55.980Z,4.37
2017-09-10T08:13:23.488Z,3.90
2017-09-10T08:15:51.036Z,4.53
2017-09-10T08:18:18.550Z,4.40
2017-09-10T08:20:46.060Z,4.27
2017-09-10T08:23:13.588Z,4.07
2017-09-10T08:25:41.105Z,3.80
2017-09-10T08:28:09.396Z,4.47
2017-09-10T08:30:36.938Z,4.13
2017-09-10T08:33:04.457Z,3.50
2017-09-10T08:35:31.971Z,6.07
2017-09-10T08:37:59.520Z,3.20
2017-09-10T08:40:27.794Z,4.30
2017-09-10T08:42:56.068Z,3.30
2017-09-10T08:45:24.372Z,3.73
2017-09-10T08:47:51.892Z,5.93
2017-09-10T08:50:19.411Z,3.53
2017-09-10T08:52:46.926Z,2.60
2017-09-10T08:55:14.456Z,3.07
2017-09-10T08:57:41.972Z,3.47
2017-09-10T09:00:09.522Z,4.40
2017-09-10T09:02:37.036Z,2.85
2017-09-10T09:05:04.549Z,3.62
2017-09-10T09:07:32.068Z,2.92
2017-09-10T09:09:59.580Z,3.15
2017-09-10T09:12:27.116Z,3.03
2017-09-10T09:14:54.621Z,3.22
2017-09-10T09:17:22.148Z,3.12
2017-09-10T09:19:49.650Z,4.07
2017-09-10T09:22:17.197Z,2.83
2017-09-10T09:24:44.704Z,2.92
2017-09-10T09:27:12.976Z,2.90
2017-09-10T09:29:40.506Z,3.22
2017-09-10T09:32:08.018Z,2.33
2017-09-10T09:34:35.552Z,2.53
2017-09-10T09:37:03.840Z,2.77
2017-09-10T09:39:32.139Z,2.60
2017-09-10T09:41:59.646Z,1.90
2017-09-10T09:44:27.171Z,2.13
2017-09-10T09:46:54.681Z,2.37
2017-09-10T09:49:23.001Z,2.70
2017-09-10T09:51:50.524Z,3.00
2017-09-10T09:54:18.809Z,2.50
2017-09-10T09:56:47.100Z,2.10
2017-09-10T09:59:14.617Z,3.67
2017-09-10T10:01:42.156Z,3.70
2017-09-10T10:04:09.678Z,3.22
2017-09-10T10:06:37.218Z,4.10
2017-09-10T10:09:04.731Z,2.97
2017-09-10T10:11:32.254Z,3.00
2017-09-10T10:13:59.764Z,4.15
2017-09-10T10:16:27.333Z,2.35
2017-09-10T10:18:54.838Z,2.17
2017-09-10T10:21:22.388Z,2.13
2017-09-10T10:23:50.684Z,2.50
2017-09-10T10:26:18.203Z,2.33
2017-09-10T10:28:45.728Z,3.50
2017-09-10T10:31:14.049Z,3.23
2017-09-10T10:33:41.573Z,2.60
2017-09-10T10:36:09.078Z,2.33
2017-09-10T10:38:37.364Z,2.93
2017-09-10T10:41:04.877Z,2.17
2017-09-10T10:43:32.405Z,2.75
2017-09-10T10:45:59.957Z,2.15
2017-09-10T10:48:27.485Z,2.78
2017-09-10T10:50:55.001Z,2.97
2017-09-10T10:53:23.302Z,2.42
2017-09-10T10:55:50.813Z,2.70
2017-09-10T10:58:18.368Z,2.60
2017-09-10T11:00:45.887Z,2.72
2017-09-10T11:03:14.743Z,2.92
2017-09-10T11:05:43.049Z,2.42
2017-09-10T11:08:10.560Z,2.45
2017-09-10T11:10:38.092Z,2.60
2017-09-10T11:13:05.600Z,2.85
2017-09-10T11:15:33.138Z,2.80
2017-09-10T11:18:00.661Z,2.65
2017-09-10T11:20:28.186Z,4.15
2017-09-10T11:22:55.708Z,2.05
2017-09-10T11:25:23.266Z,2.65
2017-09-10T11:27:50.768Z,2.05
2017-09-10T11:30:19.036Z,2.40
2017-09-10T11:32:46.668Z,2.30
2017-09-10T11:35:14.202Z,3.25
2017-09-10T11:37:41.737Z,2.87
2017-09-10T11:40:09.252Z,2.83
2017-09-10T11:42:36.792Z,2.55
2017-09-10T11:45:04.319Z,2.55
2017-09-10T11:47:33.200Z,2.92
2017-09-10T11:50:00.712Z,1.95
2017-09-10T11:52:28.249Z,2.45
2017-09-10T11:54:55.759Z,1.83
2017-09-10T11:57:24.065Z,1.83
2017-09-10T11:59:51.580Z,2.60
2017-09-10T12:02:19.140Z,2.37
2017-09-10T12:04:46.654Z,3.20
2017-09-10T12:07:14.164Z,3.40
2017-09-10T12:09:41.697Z,2.80
2017-09-10T12:12:09.208Z,3.25
2017-09-10T12:14:36.736Z,2.40
2017-09-10T12:17:05.380Z,3.00
2017-09-10T12:19:32.915Z,3.20
2017-09-10T12:22:00.437Z,3.97
2017-09-10T12:24:27.965Z,3.27
2017-09-10T12:26:55.492Z,3.07
2017-09-10T12:29:23.048Z,5.27
2017-09-10T12:31:50.553Z,2.67
2017-09-10T12:34:19.210Z,2.77
2017-09-10T12:36:46.752Z,3.17
2017-09-10T12:39:14.256Z,2.60
2017-09-10T12:41:41.779Z,2.13
2017-09-10T12:44:09.279Z,2.55
2017-09-10T12:46:36.837Z,2.55
2017-09-10T12:49:05.485Z,2.35
2017-09-10T12:51:33.023Z,4.03
2017-09-10T12:54:01.310Z,2.47
2017-09-10T12:56:28.876Z,2.00
2017-09-10T12:58:57.161Z,2.15
2017-09-10T13:01:24.677Z,2.97
2017-09-10T13:03:52.210Z,2.47
2017-09-10T13:06:19.717Z,1.80
2017-09-10T13:08:48.383Z,2.67
2017-09-10T13:11:15.904Z,2.70
2017-09-10T13:13:43.445Z,2.62
2017-09-10T13:16:10.966Z,2.58
2017-09-10T13:18:38.501Z,2.87
2017-09-10T13:21:06.017Z,2.08
2017-09-10T13:23:34.317Z,3.30
2017-09-10T13:26:01.824Z,3.23
2017-09-10T13:28:29.358Z,2.80
2017-09-10T13:30:56.873Z,2.20
2017-09-10T13:33:24.435Z,2.70
2017-09-10T13:35:51.961Z,2.35
2017-09-10T13:38:19.480Z,1.95
2017-09-10T13:40:47.013Z,3.17
2017-09-10T13:43:15.290Z,1.90
2017-09-10T13:45:42.821Z,2.42
2017-09-10T13:48:10.349Z,2.92
2017-09-10T13:50:37.894Z,3.50
2017-09-10T13:53:05.410Z,2.53
2017-09-10T13:55:32.945Z,2.75
2017-09-10T13:58:00.456Z,2.00
2017-09-10T14:00:27.986Z,2.28
2017-09-10T14:02:55.506Z,2.40
2017-09-10T14:05:24.412Z,1.48
2017-09-10T14:07:53.275Z,2.45
2017-09-10T14:10:20.800Z,1.87
2017-09-10T14:12:49.663Z,2.65
2017-09-10T14:15:17.164Z,2.10
2017-09-10T14:17:44.705Z,1.90
2017-09-10T14:20:13.567Z,2.08
2017-09-10T14:22:42.445Z,1.70
2017-09-10T14:25:11.296Z,3.43
2017-09-10T14:27:40.163Z,3.27
2017-09-10T14:30:09.016Z,3.30
2017-09-10T14:32:37.923Z,5.10
2017-09-10T14:35:06.771Z,3.07
2017-09-10T14:37:35.652Z,1.93
2017-09-10T14:40:04.519Z,2.03
2017-09-10T14:45:08.733Z,2.30
2017-09-10T14:47:37.593Z,2.10
2017-09-10T14:50:06.507Z,2.30
2017-09-10T14:52:35.373Z,2.10
2017-09-10T14:55:04.243Z,2.03
2017-09-10T14:57:33.105Z,2.00
2017-09-10T15:00:01.981Z,2.07
2017-09-10T15:02:30.839Z,1.57
2017-09-10T15:04:59.748Z,2.20
2017-09-10T15:07:28.612Z,2.70
2017-09-10T15:09:57.459Z,2.93
2017-09-10T15:12:26.129Z,3.60
2017-09-10T15:14:53.656Z,3.33
2017-09-10T15:17:21.180Z,3.67
2017-09-10T15:19:49.465Z,2.03
2017-09-10T15:22:17.756Z,1.60
2017-09-10T15:24:45.263Z,2.17
2017-09-10T15:27:12.789Z,2.07
2017-09-10T15:29:40.305Z,1.70
2017-09-10T15:32:07.827Z,1.93
2017-09-10T15:34:36.476Z,2.50
2017-09-10T15:37:04.009Z,2.60
2017-09-10T15:39:31.524Z,3.87
2017-09-10T15:42:00.208Z,2.60
2017-09-10T15:44:27.713Z,3.30
2017-09-10T15:46:55.236Z,4.83
2017-09-10T15:49:22.769Z,5.30
2017-09-10T15:51:50.285Z,1.80
2017-09-10T15:54:17.817Z,1.90
2017-09-10T15:56:45.333Z,1.50
2017-09-10T15:59:13.642Z,4.40
2017-09-10T16:01:41.162Z,2.17
2017-09-10T16:04:09.477Z,1.50
2017-09-10T16:06:36.994Z,4.63
2017-09-10T16:09:05.285Z,5.67
2017-09-10T16:11:32.818Z,1.83
2017-09-10T16:14:00.324Z,3.43
2017-09-10T16:16:27.862Z,3.30
2017-09-10T16:18:55.373Z,2.33
2017-09-10T16:21:22.907Z,2.73
2017-09-10T16:23:50.418Z,1.80
2017-09-10T16:26:17.972Z,2.27
2017-09-10T16:28:45.486Z,1.80
2017-09-10T16:31:13.002Z,3.77
2017-09-10T16:33:40.528Z,3.87
2017-09-10T16:36:08.041Z,2.50
2017-09-10T16:38:36.338Z,1.73
2017-09-10T16:41:03.849Z,2.20
2017-09-10T16:43:31.404Z,2.27
2017-09-10T16:45:58.922Z,2.40
2017-09-10T16:48:26.439Z,2.80
2017-09-10T16:50:54.737Z,1.70
2017-09-10T16:53:22.249Z,2.20
2017-09-10T16:55:49.778Z,2.50
2017-09-10T16:58:17.289Z,2.40
2017-09-10T17:00:44.829Z,2.80
2017-09-10T17:03:12.340Z,2.00
2017-09-10T17:05:39.865Z,2.70
2017-09-10T17:08:07.377Z,3.30
2017-09-10T17:10:34.908Z,1.97
2017-09-10T17:13:03.194Z,2.90
2017-09-10T17:15:30.754Z,2.20
2017-09-10T17:17:58.268Z,1.83
2017-09-10T17:20:25.781Z,3.73
2017-09-10T17:22:53.308Z,2.83
2017-09-10T17:25:21.629Z,3.67
2017-09-10T17:27:49.153Z,3.00
2017-09-10T17:30:17.429Z,2.40
2017-09-10T17:32:45.773Z,6.67
2017-09-10T17:35:13.289Z,3.20
2017-09-10T17:37:40.808Z,3.97
2017-09-10T17:40:08.335Z,3.50
2017-09-10T17:42:35.844Z,3.43
2017-09-10T17:45:04.136Z,3.17
2017-09-10T17:47:31.647Z,4.73
2017-09-10T17:49:59.199Z,2.90
2017-09-10T17:52:26.708Z,4.53
2017-09-10T17:54:54.229Z,3.80
2017-09-10T17:57:21.765Z,2.73
2017-09-10T17:59:49.268Z,5.80
2017-09-10T18:02:16.795Z,3.50
2017-09-10T18:04:44.309Z,5.00
2017-09-10T18:07:11.845Z,4.27
2017-09-10T18:09:39.358Z,5.20
2017-09-10T18:12:06.893Z,3.83
2017-09-10T18:14:34.404Z,5.60
2017-09-10T18:17:01.952Z,3.70
2017-09-10T18:19:29.465Z,3.90
2017-09-10T18:21:57.746Z,7.03
2017-09-10T18:26:58.717Z,4.07
2017-09-10T18:29:26.244Z,3.93
2017-09-10T18:31:53.757Z,3.97
2017-09-10T18:34:21.288Z,4.70
2017-09-10T18:36:48.809Z,4.97
2017-09-10T18:39:16.337Z,4.53
2017-09-10T18:41:43.835Z,5.37
2017-09-10T18:44:11.381Z,5.20
2017-09-10T18:46:38.883Z,6.27
2017-09-10T18:49:07.184Z,6.83
2017-09-10T18:51:34.716Z,5.63
2017-09-10T18:54:02.997Z,6.43
2017-09-10T18:56:31.302Z,6.83
2017-09-10T18:58:58.834Z,5.37
2017-09-10T19:01:26.360Z,8.47
2017-09-10T19:03:53.877Z,7.20
2017-09-10T19:06:21.429Z,6.20
2017-09-10T19:08:48.945Z,7.10
2017-09-10T19:11:16.458Z,5.93
2017-09-10T19:13:43.984Z,6.17
2017-09-10T19:16:12.273Z,5.63
2017-09-10T19:18:40.567Z,5.60
2017-09-10T19:21:08.083Z,5.00
2017-09-10T19:23:35.613Z,5.50
2017-09-10T19:26:03.120Z,5.13
2017-09-10T19:28:30.644Z,6.10
2017-09-10T19:30:58.168Z,5.93
2017-09-10T19:33:25.743Z,5.73
2017-09-10T19:35:53.305Z,5.43
2017-09-10T19:38:20.812Z,5.80
2017-09-10T19:40:49.104Z,6.20
2017-09-10T19:43:16.621Z,5.33
2017-09-10T19:45:44.190Z,6.60
2017-09-10T19:48:12.472Z,6.40
2017-09-10T19:50:40.003Z,7.17
2017-09-10T19:53:07.508Z,7.10
2017-09-10T19:55:35.046Z,6.57
2017-09-10T19:58:02.552Z,6.37
2017-09-10T20:00:30.117Z,6.10
2017-09-10T20:02:57.630Z,6.03
2017-09-10T20:05:25.177Z,5.40
2017-09-10T20:07:52.692Z,5.30
2017-09-10T20:10:20.218Z,5.73
2017-09-10T20:12:48.533Z,5.47
2017-09-10T20:15:16.042Z,5.93
2017-09-10T20:17:43.573Z,5.90
2017-09-10T20:20:11.087Z,5.67
2017-09-10T20:22:39.377Z,5.40
2017-09-10T20:25:06.892Z,5.60
2017-09-10T20:27:34.450Z,5.70
2017-09-10T20:30:01.962Z,4.77
2017-09-10T20:32:29.481Z,4.47
2017-09-10T20:34:57.016Z,4.47
2017-09-10T20:37:24.529Z,4.43
2017-09-10T20:39:52.061Z,4.17
2017-09-10T20:42:19.567Z,4.17
2017-09-10T20:44:47.104Z,4.10
2017-09-10T20:47:14.625Z,4.67
2017-09-10T20:49:42.158Z,3.63
2017-09-10T20:52:09.668Z,3.67
2017-09-10T20:54:37.983Z,4.30
2017-09-10T20:57:05.498Z,3.57
2017-09-10T20:59:33.015Z,4.73
2017-09-10T21:02:00.549Z,4.57
2017-09-10T21:04:28.066Z,3.67
2017-09-10T21:06:55.591Z,4.00
2017-09-10T21:09:23.112Z,4.77
2017-09-10T21:11:50.648Z,3.20
2017-09-10T21:14:18.159Z,3.90
2017-09-10T21:16:45.710Z,3.40
2017-09-10T21:19:13.221Z,5.77
2017-09-10T21:21:40.728Z,4.40
2017-09-10T21:24:08.253Z,3.97
2017-09-10T21:26:35.778Z,3.93
2017-09-10T21:29:03.313Z,4.47
2017-09-10T21:31:30.830Z,4.23
2017-09-10T21:33:58.373Z,4.03
2017-09-10T21:36:25.884Z,4.20
2017-09-10T21:38:53.428Z,3.77
2017-09-10T21:41:20.936Z,3.40
2017-09-10T21:43:48.444Z,3.63
2017-09-10T21:46:15.984Z,3.40
2017-09-10T21:48:43.497Z,3.37
2017-09-10T21:51:11.030Z,3.33
2017-09-10T21:53:39.311Z,3.70
2017-09-10T21:56:06.845Z,3.27
2017-09-10T21:58:34.373Z,3.17
2017-09-10T22:01:01.916Z,2.63
2017-09-10T22:03:29.420Z,3.57
2017-09-10T22:05:56.928Z,3.40
2017-09-10T22:08:24.466Z,3.10
2017-09-10T22:10:51.973Z,3.10
2017-09-10T22:13:19.508Z,6.60
2017-09-10T22:15:47.013Z,3.83
2017-09-10T22:18:14.535Z,4.60
2017-09-10T22:20:42.046Z,3.90
2017-09-10T22:23:10.348Z,3.93
2017-09-10T22:25:37.861Z,4.10
2017-09-10T22:28:05.383Z,5.00
2017-09-10T22:30:32.915Z,5.10
2017-09-10T22:33:01.193Z,4.70
2017-09-10T22:35:29.493Z,6.00
2017-09-10T22:37:57.004Z,4.53
2017-09-10T22:40:24.538Z,4.73
2017-09-10T22:42:52.054Z,6.00
2017-09-10T22:45:19.609Z,4.60
2017-09-10T22:47:47.884Z,4.43
2017-09-10T22:50:15.396Z,5.40
2017-09-10T22:52:42.921Z,5.20
2017-09-10T22:55:10.434Z,5.70
2017-09-10T22:57:37.964Z,4.93
2017-09-10T23:00:05.481Z,4.77
2017-09-10T23:02:33.022Z,5.00
2017-09-10T23:05:00.533Z,4.40
2017-09-10T23:07:28.069Z,7.40
2017-09-10T23:09:55.581Z,4.53
2017-09-10T23:12:23.089Z,5.50
2017-09-10T23:14:50.621Z,4.40
2017-09-10T23:17:18.141Z,4.60
2017-09-10T23:19:45.674Z,4.60
2017-09-10T23:22:16.024Z,4.70
2017-09-10T23:24:43.557Z,4.57
2017-09-10T23:27:11.073Z,5.43
2017-09-10T23:29:38.601Z,3.57
2017-09-10T23:32:06.136Z,4.60
2017-09-10T23:34:33.660Z,5.40
2017-09-10T23:37:01.173Z,5.57
2017-09-10T23:39:32.136Z,5.10
2017-09-10T23:42:00.983Z,4.70
2017-09-10T23:44:29.827Z,4.73
2017-09-10T23:46:58.701Z,4.33
2017-09-10T23:49:27.557Z,5.30
2017-09-10T23:51:56.441Z,6.00
2017-09-10T23:54:25.291Z,5.37
2017-09-10T23:56:54.161Z,5.43
2017-09-10T23:59:23.015Z,4.70
